Time;durP1;ratioP1;P1;durP2;ratioP2;P2;SDS_P1;SDS_P2;PMS_P1;PMS_P2;Temp;Humidity;BMP_temperature;BMP_pressure;BME280_temperature;BME280_humidity;BME280_pressure;Samples;Min_cycle;Max_cycle;Signal;HPM_P1;HPM_P2
2022/08/05 00:01:14;;;;;;;;;;;;;;;-142.75;100.00;76320.31;5069074;28;19916;-64
2022/08/05 00:03:40;;;;;;;;;;;;;;;-142.75;100.00;76318.34;5071711;28;19964;-64
2022/08/05 00:06:05;;;;;;;;;;;;;;;-142.75;100.00;76308.50;5065922;28;19913;-65
2022/08/05 00:08:30;;;;;;;;;;;;;;;-142.75;100.00;76316.38;5051333;28;20370;-64
2022/08/05 00:10:56;;;;;;;;;;;;;;;-142.75;100.00;76324.25;5033831;28;20409;-64
2022/08/05 00:13:21;;;;;;;;;;;;;;;-142.75;100.00;76310.47;5051726;28;19956;-64
2022/08/05 00:15:47;;;;;;;;;;;;;;;-142.75;100.00;76310.47;5051576;28;19956;-64
2022/08/05 00:18:12;;;;;;;;;;;;;;;-142.75;100.00;76306.53;5051143;28;19935;-65
2022/08/05 00:20:37;;;;;;;;;;;;;;;-142.75;100.00;76314.41;5051587;28;19916;-64
2022/08/05 00:23:02;;;;;;;;;;;;;;;-142.75;100.00;76326.22;5051416;28;19966;-65
2022/08/05 00:25:27;;;;;;;;;;;;;;;-142.75;100.00;76328.19;5048287;28;19916;-64
2022/08/05 00:27:53;;;;;;;;;;;;;;;-142.75;100.00;76332.13;5053641;28;20378;-64
2022/08/05 00:30:18;;;;;;;;;;;;;;;-142.75;100.00;76330.16;5055275;28;19924;-64
2022/08/05 00:32:43;;;;;;;;;;;;;;;-142.75;100.00;76326.22;5055180;28;19913;-64
2022/08/05 00:35:08;;;;;;;;;;;;;;;-142.75;100.00;76322.28;5054949;28;19913;-64
2022/08/05 00:37:34;;;;;;;;;;;;;;;-142.75;100.00;76345.91;5054732;28;20015;-65
2022/08/05 00:39:59;;;;;;;;;;;;;;;-142.75;100.00;76345.91;5055114;28;19920;-64
2022/08/05 00:42:32;;;;;;;;;;;;;;;-142.75;100.00;76347.84;5055198;28;20467;-64
2022/08/05 00:44:57;;;;;;;;;;;;;;;-142.75;100.00;76343.94;5055026;28;19963;-64
2022/08/05 00:47:22;;;;;;;;;;;;;;;-142.75;100.00;76347.84;5054653;28;19948;-65
2022/08/05 00:49:47;;;;;;;;;;;;;;;-142.75;100.00;76336.06;5054714;28;20281;-65
2022/08/05 00:52:12;;;;;;;;;;;;;;;-142.75;100.00;76338.03;5054858;28;19912;-64
2022/08/05 00:54:38;;;;;;;;;;;;;;;-142.75;100.00;76345.91;5054864;28;20329;-65
2022/08/05 00:57:03;;;;;;;;;;;;;;;-142.75;100.00;76361.63;5054174;28;19952;-65
2022/08/05 00:59:28;;;;;;;;;;;;;;;-142.75;100.00;76359.66;5054751;28;19974;-64
2022/08/05 01:01:53;;;;;;;;;;;;;;;-142.75;100.00;76365.56;5054867;28;19912;-65
2022/08/05 01:04:19;;;;;;;;;;;;;;;-142.75;100.00;76357.69;5054773;28;20453;-64
2022/08/05 01:06:46;;;;;;;;;;;;;;;-142.75;100.00;76375.41;5054606;28;19917;-62
2022/08/05 01:09:11;;;;;;;;;;;;;;;-142.75;100.00;76389.19;5054549;28;20004;-63
2022/08/05 01:11:38;;;;;;;;;;;;;;;-142.75;100.00;76377.38;5036560;28;19947;-63
2022/08/05 01:14:16;;;;;;;;;;;;;;;-142.75;100.00;76393.13;5054235;28;19913;-63
2022/08/05 01:16:41;;;;;;;;;;;;;;;-142.75;100.00;76404.94;5054063;28;19912;-63
2022/08/05 01:19:14;;;;;;;;;;;;;;;-142.75;100.00;76416.75;5054297;28;19967;-63
2022/08/05 01:21:49;;;;;;;;;;;;;;;-142.75;100.00;76406.91;5054301;28;19913;-63
2022/08/05 01:24:32;;;;;;;;;;;;;;;-142.75;100.00;76412.81;5054308;28;19912;-62
2022/08/05 01:26:58;;;;;;;;;;;;;;;-142.75;100.00;76430.53;5053792;28;19958;-62
2022/08/05 01:29:30;;;;;;;;;;;;;;;-142.75;100.00;76440.38;5054011;28;19921;-63
2022/08/05 01:31:59;;;;;;;;;;;;;;;-142.75;100.00;76424.63;5054166;28;19939;-63
2022/08/05 01:34:26;;;;;;;;;;;;;;;-142.75;100.00;76424.63;5054258;28;19920;-63
2022/08/05 01:36:57;;;;;;;;;;;;;;;-142.75;100.00;76432.50;5053521;28;19913;-63
2022/08/05 01:39:22;;;;;;;;;;;;;;;-142.75;100.00;76428.56;5053598;28;19966;-63
2022/08/05 01:41:48;;;;;;;;;;;;;;;-142.75;100.00;76432.50;5053946;28;20008;-63
2022/08/05 01:44:13;;;;;;;;;;;;;;;-142.75;100.00;76432.50;5053891;28;19924;-63
2022/08/05 01:46:40;;;;;;;;;;;;;;;-142.75;100.00;76448.25;5053469;28;19913;-63
2022/08/05 01:49:06;;;;;;;;;;;;;;;-142.75;100.00;76436.44;5053761;28;20008;-63
2022/08/05 01:51:34;;;;;;;;;;;;;;;-142.75;100.00;76446.28;5053783;28;20015;-63
2022/08/05 01:54:01;;;;;;;;;;;;;;;-142.75;100.00;76440.38;5053724;28;20370;-62
2022/08/05 01:56:28;;;;;;;;;;;;;;;-142.75;100.00;76444.31;5053309;28;20297;-63
2022/08/05 01:58:53;;;;;;;;;;;;;;;-142.75;100.00;76444.31;5053461;28;19912;-63
2022/08/05 02:01:19;;;;;;;;;;;;;;;-142.75;100.00;76444.31;5053575;28;20435;-63
2022/08/05 02:03:46;;;;;;;;;;;;;;;-142.75;100.00;76448.25;5053536;28;19916;-62
2022/08/05 02:06:12;;;;;;;;;;;;;;;-142.75;100.00;76432.50;5053386;28;19913;-63
2022/08/05 02:08:37;;;;;;;;;;;;;;;-142.75;100.00;76469.91;5053180;28;19923;-63
2022/08/05 02:11:07;;;;;;;;;;;;;;;-142.75;100.00;76448.25;5053246;28;19920;-63
2022/08/05 02:13:48;;;;;;;;;;;;;;;-142.75;100.00;76462.03;5053285;28;19913;-63
2022/08/05 02:16:18;;;;;;;;;;;;;;;-142.75;100.00;76465.97;5053221;28;19913;-62
2022/08/05 02:18:46;;;;;;;;;;;;;;;-142.75;100.00;76471.88;5052948;28;20012;-62
2022/08/05 02:21:14;;;;;;;;;;;;;;;-142.75;100.00;76467.94;5053157;28;19917;-63
2022/08/05 02:23:40;;;;;;;;;;;;;;;-142.75;100.00;76471.88;5053061;28;19919;-63
2022/08/05 02:26:08;;;;;;;;;;;;;;;-142.75;100.00;76471.88;5052979;28;19924;-62
2022/08/05 02:28:35;;;;;;;;;;;;;;;-142.75;100.00;76473.84;5052801;28;20003;-62
2022/08/05 02:31:07;;;;;;;;;;;;;;;-142.75;100.00;76469.91;5053046;28;20031;-63
2022/08/05 02:33:38;;;;;;;;;;;;;;;-142.75;100.00;76481.72;5052971;28;19920;-62
2022/08/05 02:36:05;;;;;;;;;;;;;;;-142.75;100.00;76475.81;5052743;28;19955;-62
2022/08/05 02:38:31;;;;;;;;;;;;;;;-142.75;100.00;76497.47;5052571;28;19920;-63
2022/08/05 02:40:57;;;;;;;;;;;;;;;-142.75;100.00;76489.59;5052865;28;20573;-62
2022/08/05 02:43:23;;;;;;;;;;;;;;;-142.75;100.00;76487.63;5052797;28;19912;-62
2022/08/05 02:45:49;;;;;;;;;;;;;;;-142.75;100.00;76485.66;5052724;28;19913;-63
2022/08/05 02:48:15;;;;;;;;;;;;;;;-142.75;100.00;76481.72;5052395;28;20289;-62
2022/08/05 02:50:41;;;;;;;;;;;;;;;-142.75;100.00;76487.63;5051748;28;19917;-63
2022/08/05 02:53:07;;;;;;;;;;;;;;;-142.75;100.00;76483.69;5052613;28;19920;-62
2022/08/05 02:55:33;;;;;;;;;;;;;;;-142.75;100.00;76493.53;5052526;28;20011;-63
2022/08/05 02:57:58;;;;;;;;;;;;;;;-142.75;100.00;76507.31;5052089;28;19970;-62
2022/08/05 03:00:24;;;;;;;;;;;;;;;-142.75;100.00;76499.44;5052490;28;19919;-65
2022/08/05 03:02:50;;;;;;;;;;;;;;;-142.75;100.00;76509.28;5052529;28;20563;-63
2022/08/05 03:05:18;;;;;;;;;;;;;;;-142.75;100.00;76503.38;5051551;28;20216;-63
2022/08/05 03:07:44;;;;;;;;;;;;;;;-142.75;100.00;76505.34;5052022;28;19913;-63
2022/08/05 03:10:09;;;;;;;;;;;;;;;-142.75;100.00;76503.38;5052298;28;19971;-63
2022/08/05 03:12:38;;;;;;;;;;;;;;;-142.75;100.00;76507.31;5052381;28;20011;-63
2022/08/05 03:15:05;;;;;;;;;;;;;;;-142.75;100.00;76503.38;5052389;28;19991;-63
2022/08/05 03:17:30;;;;;;;;;;;;;;;-142.75;100.00;76507.31;5052327;28;20016;-63
2022/08/05 03:19:55;;;;;;;;;;;;;;;-142.75;100.00;76525.03;5052110;28;19963;-62
2022/08/05 03:22:20;;;;;;;;;;;;;;;-142.75;100.00;76517.16;5052280;28;19912;-63
2022/08/05 03:24:46;;;;;;;;;;;;;;;-142.75;100.00;76525.03;5052221;28;20353;-62
2022/08/05 03:27:12;;;;;;;;;;;;;;;-142.75;100.00;76523.06;5051864;28;19916;-62
2022/08/05 03:29:39;;;;;;;;;;;;;;;-142.75;100.00;76525.03;5052147;28;19960;-62
2022/08/05 03:32:05;;;;;;;;;;;;;;;-142.75;100.00;76530.91;5052198;28;19916;-63
2022/08/05 03:34:31;;;;;;;;;;;;;;;-142.75;100.00;76550.59;5052065;28;19966;-62
2022/08/05 03:36:56;;;;;;;;;;;;;;;-142.75;100.00;76548.63;5051887;28;19928;-62
2022/08/05 03:39:21;;;;;;;;;;;;;;;-142.75;100.00;76546.66;5034577;28;19920;-62
2022/08/05 03:41:46;;;;;;;;;;;;;;;-142.75;100.00;76564.38;5052474;28;19920;-62
2022/08/05 03:44:12;;;;;;;;;;;;;;;-142.75;100.00;76578.16;5052198;28;20053;-63
2022/08/05 03:46:37;;;;;;;;;;;;;;;-142.75;100.00;76572.25;5051616;28;19952;-63
2022/08/05 03:49:02;;;;;;;;;;;;;;;-142.75;100.00;76574.22;5051882;28;19920;-63
2022/08/05 03:51:29;;;;;;;;;;;;;;;-142.75;100.00;76574.22;5052066;28;19936;-62
2022/08/05 03:54:14;;;;;;;;;;;;;;;-142.75;100.00;76546.66;5052210;28;19913;-62
2022/08/05 03:56:44;;;;;;;;;;;;;;;-142.75;100.00;76564.38;5044174;28;19939;-62
2022/08/05 03:59:15;;;;;;;;;;;;;;;-142.75;100.00;76558.47;5052068;28;19912;-62
2022/08/05 04:01:43;;;;;;;;;;;;;;;-142.75;100.00;76560.44;5054306;28;19921;-63
2022/08/05 04:04:09;;;;;;;;;;;;;;;-142.75;100.00;76562.41;5056079;28;20433;-63
2022/08/05 04:06:34;;;;;;;;;;;;;;;-142.75;100.00;76560.44;5055483;28;19959;-63
2022/08/05 04:09:00;;;;;;;;;;;;;;;-142.75;100.00;76574.22;5055697;28;20005;-63
2022/08/05 04:11:26;;;;;;;;;;;;;;;-142.75;100.00;76568.31;5037818;28;19913;-62
2022/08/05 04:13:51;;;;;;;;;;;;;;;-142.75;100.00;76570.28;5055612;28;19919;-63
2022/08/05 04:16:17;;;;;;;;;;;;;;;-142.75;100.00;76584.06;5055442;28;19920;-63
2022/08/05 04:18:43;;;;;;;;;;;;;;;-142.75;100.00;76601.78;5055210;28;20008;-63
2022/08/05 04:21:08;;;;;;;;;;;;;;;-142.75;100.00;76601.78;5055628;28;19920;-63
2022/08/05 04:23:35;;;;;;;;;;;;;;;-142.75;100.00;76607.69;5055419;28;19932;-63
2022/08/05 04:26:00;;;;;;;;;;;;;;;-142.75;100.00;76617.53;5055453;28;19913;-62
2022/08/05 04:28:25;;;;;;;;;;;;;;;-142.75;100.00;76615.56;5054984;28;19913;-63
2022/08/05 04:30:50;;;;;;;;;;;;;;;-142.75;100.00;76625.41;5055290;28;19921;-63
2022/08/05 04:33:16;;;;;;;;;;;;;;;-142.75;100.00;76625.41;5055193;28;20290;-63
2022/08/05 04:35:42;;;;;;;;;;;;;;;-142.75;100.00;76621.47;5037287;28;19917;-63
2022/08/05 04:38:07;;;;;;;;;;;;;;;-142.75;100.00;76633.28;5054879;28;19912;-63
2022/08/05 04:40:36;;;;;;;;;;;;;;;-142.75;100.00;76625.41;5055119;28;20374;-63
2022/08/05 04:43:02;;;;;;;;;;;;;;;-142.75;100.00;76651.00;5055062;28;20409;-63
2022/08/05 04:45:27;;;;;;;;;;;;;;;-142.75;100.00;76637.22;5054903;28;19952;-62
2022/08/05 04:47:52;;;;;;;;;;;;;;;-142.75;100.00;76643.13;5054620;28;19912;-63
2022/08/05 04:50:18;;;;;;;;;;;;;;;-142.75;100.00;76654.94;5054903;28;19967;-63
2022/08/05 04:52:43;;;;;;;;;;;;;;;-142.75;100.00;76652.97;5054906;28;20328;-63
2022/08/05 04:55:08;;;;;;;;;;;;;;;-142.75;100.00;76658.88;5054881;28;19912;-63
2022/08/05 04:57:34;;;;;;;;;;;;;;;-142.75;100.00;76652.97;5054307;28;20298;-63
2022/08/05 04:59:59;;;;;;;;;;;;;;;-142.75;100.00;76660.84;5054759;28;19999;-63
2022/08/05 05:02:25;;;;;;;;;;;;;;;-142.75;100.00;76652.97;5055030;28;19923;-63
2022/08/05 05:04:50;;;;;;;;;;;;;;;-142.75;100.00;76643.13;5054666;28;20053;-63
2022/08/05 05:07:16;;;;;;;;;;;;;;;-142.75;100.00;76639.19;5054259;28;19917;-63
2022/08/05 05:09:41;;;;;;;;;;;;;;;-142.75;100.00;76635.25;5054498;28;19917;-63
2022/08/05 05:12:06;;;;;;;;;;;;;;;-142.75;100.00;76627.38;5036035;28;19920;-63
2022/08/05 05:14:32;;;;;;;;;;;;;;;-142.75;100.00;76605.72;5054209;28;20479;-62
2022/08/05 05:16:58;;;;;;;;;;;;;;;-142.75;100.00;76605.72;5054066;28;19913;-63
2022/08/05 05:19:23;;;;;;;;;;;;;;;-142.75;100.00;76586.03;5054417;28;19917;-63
2022/08/05 05:21:48;;;;;;;;;;;;;;;-142.75;100.00;76576.19;5054361;28;20027;-63
2022/08/05 05:24:13;;;;;;;;;;;;;;;-142.75;100.00;76574.22;5054329;28;19999;-63
2022/08/05 05:26:38;;;;;;;;;;;;;;;-142.75;100.00;76556.50;5036152;28;20010;-63
2022/08/05 05:29:03;;;;;;;;;;;;;;;-142.75;100.00;76530.91;5054121;28;19939;-63
2022/08/05 05:31:29;;;;;;;;;;;;;;;-142.75;100.00;76507.31;5054086;28;19913;-63
2022/08/05 05:33:54;;;;;;;;;;;;;;;-142.75;100.00;76497.47;5054233;28;19924;-62
2022/08/05 05:36:19;;;;;;;;;;;;;;;-142.75;100.00;76483.69;5054026;28;19912;-63
2022/08/05 05:38:45;;;;;;;;;;;;;;;-142.75;100.00;76454.16;5035902;28;19916;-63
2022/08/05 05:41:10;;;;;;;;;;;;;;;-142.75;100.00;76454.16;5054008;28;20371;-63
2022/08/05 05:43:35;;;;;;;;;;;;;;;-142.75;100.00;76442.34;5053832;28;19967;-63
2022/08/05 05:46:00;;;;;;;;;;;;;;;-142.75;100.00;76428.56;5053819;28;20356;-63
2022/08/05 05:48:26;;;;;;;;;;;;;;;-142.75;100.00;76412.81;5053708;28;19912;-63
2022/08/05 05:50:51;;;;;;;;;;;;;;;-142.75;100.00;76389.19;5053752;28;19917;-63
2022/08/05 05:53:16;;;;;;;;;;;;;;;-142.75;100.00;76369.50;5053765;28;19917;-63
2022/08/05 05:55:42;;;;;;;;;;;;;;;-142.75;100.00;76359.66;5053593;28;19916;-63
2022/08/05 05:58:07;;;;;;;;;;;;;;;-142.75;100.00;76341.97;5086019;22;19966;-64
2022/08/05 06:00:32;;;;;;;;;;;;;;;-142.75;100.00;76324.25;5072114;28;19995;-64
2022/08/05 06:02:59;;;;;;;;;;;;;;;-142.75;100.00;76326.22;5073218;28;19913;-65
2022/08/05 06:05:24;;;;;;;;;;;;;;;-142.75;100.00;76322.28;5073686;28;20060;-66
2022/08/05 06:07:49;;;;;;;;;;;;;;;-142.75;100.00;76310.47;5060405;28;20441;-65
2022/08/05 06:10:14;;;;;;;;;;;;;;;-142.75;100.00;76308.50;5053370;28;19917;-65
2022/08/05 06:12:40;;;;;;;;;;;;;;;-142.75;100.00;76310.47;5053389;28;20309;-65
2022/08/05 06:15:05;;;;;;;;;;;;;;;-142.75;100.00;76286.84;5053218;28;20370;-66
2022/08/05 06:17:31;;;;;;;;;;;;;;;-142.75;100.00;76273.06;5034980;28;20572;-66
2022/08/05 06:19:56;;;;;;;;;;;;;;;-142.75;100.00;76271.09;5053253;28;19913;-66
2022/08/05 06:22:23;;;;;;;;;;;;;;;-142.75;100.00;76267.16;5053314;28;20382;-66
2022/08/05 06:24:48;;;;;;;;;;;;;;;-142.75;100.00;76255.34;5035191;28;20406;-66
2022/08/05 06:27:13;;;;;;;;;;;;;;;-142.75;100.00;76247.47;5052732;28;19959;-65
2022/08/05 06:29:39;;;;;;;;;;;;;;;-142.75;100.00;76255.34;5052881;28;20337;-66
2022/08/05 06:32:04;;;;;;;;;;;;;;;-142.75;100.00;76219.91;5035019;28;20016;-65
2022/08/05 06:34:29;;;;;;;;;;;;;;;-142.75;100.00;76200.25;5053163;28;19996;-65
2022/08/05 06:36:54;;;;;;;;;;;;;;;-142.75;100.00;76174.66;5034712;28;19912;-66
2022/08/05 06:39:19;;;;;;;;;;;;;;;-142.75;100.00;76160.88;5053009;28;20028;-66
2022/08/05 06:41:45;;;;;;;;;;;;;;;-142.75;100.00;76164.81;5052810;28;19943;-65
2022/08/05 06:44:10;;;;;;;;;;;;;;;-142.75;100.00;76141.19;5034814;28;19917;-66
2022/08/05 06:46:35;;;;;;;;;;;;;;;-142.75;100.00;76156.94;5052217;28;19920;-64
2022/08/05 06:49:00;;;;;;;;;;;;;;;-142.75;100.00;76133.31;5052449;28;19924;-65
2022/08/05 06:51:25;;;;;;;;;;;;;;;-142.75;100.00;76123.47;5052672;28;19938;-66
2022/08/05 06:53:51;;;;;;;;;;;;;;;-142.75;100.00;76129.38;5035051;28;19913;-66
2022/08/05 06:56:17;;;;;;;;;;;;;;;-142.75;100.00;76078.19;5052578;28;19913;-66
2022/08/05 06:58:43;;;;;;;;;;;;;;;-142.75;100.00;76066.41;5052111;28;19916;-66
2022/08/05 07:01:08;;;;;;;;;;;;;;;-142.75;100.00;76021.13;5052448;28;20393;-65
2022/08/05 07:03:33;;;;;;;;;;;;;;;-142.75;100.00;76011.28;5034547;28;19960;-65
2022/08/05 07:06:00;;;;;;;;;;;;;;;-142.75;100.00;75987.66;5052476;28;19967;-66
2022/08/05 07:08:27;;;;;;;;;;;;;;;-142.75;100.00;75979.78;5052087;28;19940;-66
2022/08/05 07:10:52;;;;;;;;;;;;;;;-142.75;100.00;75991.59;5052199;28;19923;-66
2022/08/05 07:18:45;;;;;;;;;;;;;;;-142.75;100.00;75944.38;5052369;28;20435;-66
2022/08/05 07:21:11;;;;;;;;;;;;;;;-142.75;100.00;75956.19;5052218;28;19967;-64
2022/08/05 07:23:36;;;;;;;;;;;;;;;-142.75;100.00;75962.09;5052235;28;19913;-65
2022/08/05 07:26:02;;;;;;;;;;;;;;;-142.75;100.00;75942.41;5052133;28;19912;-64
2022/08/05 07:28:27;;;;;;;;;;;;;;;-142.75;100.00;75920.75;5033900;28;20279;-66
2022/08/05 07:30:52;;;;;;;;;;;;;;;-142.75;100.00;75924.69;5051034;28;19927;-65
2022/08/05 07:33:20;;;;;;;;;;;;;;;-142.75;100.00;75916.81;5051119;28;19987;-65
2022/08/05 07:35:45;;;;;;;;;;;;;;;-142.75;95.80;75889.25;5053254;28;19912;-66
2022/08/05 07:38:11;;;;;;;;;;;;;;;-142.75;86.13;75861.69;5057415;28;19917;-66
2022/08/05 07:40:36;;;;;;;;;;;;;;;-142.75;90.04;75853.84;5057652;28;20411;-66
2022/08/05 07:43:01;;;;;;;;;;;;;;;-142.75;87.94;75834.16;5057705;28;19966;-65
2022/08/05 07:45:26;;;;;;;;;;;;;;;-142.75;96.55;75889.25;5057418;28;19966;-65
2022/08/05 07:47:51;;;;;;;;;;;;;;;-142.75;100.00;75889.25;5057403;28;19974;-65
2022/08/05 07:50:17;;;;;;;;;;;;;;;-142.75;94.55;75964.03;5057619;28;20437;-65
2022/08/05 07:52:42;;;;;;;;;;;;;;;-142.75;96.85;75938.47;5057639;28;20073;-66
2022/08/05 07:55:08;;;;;;;;;;;;;;;-142.75;100.00;75912.88;5057789;28;19916;-65
2022/08/05 07:57:33;;;;;;;;;;;;;;;-142.75;90.90;75899.09;5056973;28;19924;-65
2022/08/05 07:59:58;;;;;;;;;;;;;;;-142.75;88.19;75885.31;5057405;28;19912;-65
2022/08/05 08:02:24;;;;;;;;;;;;;;;-142.75;88.45;75875.47;5057576;28;19913;-66
2022/08/05 08:04:49;;;;;;;;;;;;;;;-142.75;87.40;75869.56;5039621;28;19912;-66
2022/08/05 08:07:18;;;;;;;;;;;;;;;-142.75;82.84;75855.81;5057078;28;20331;-65
2022/08/05 08:09:44;;;;;;;;;;;;;;;-142.75;82.42;75798.72;5057678;28;19916;-65
2022/08/05 08:12:12;;;;;;;;;;;;;;;-142.75;78.62;75743.63;5057294;28;20400;-66
2022/08/05 08:14:37;;;;;;;;;;;;;;;-142.75;82.82;75727.88;5057179;28;19936;-65
2022/08/05 08:17:02;;;;;;;;;;;;;;;-142.75;83.97;75767.22;5057235;28;20023;-65
2022/08/05 08:19:28;;;;;;;;;;;;;;;-142.75;81.08;75759.38;5057466;28;19913;-67
2022/08/05 08:21:53;;;;;;;;;;;;;;;-142.75;85.93;75759.38;5039462;28;20281;-65
2022/08/05 08:24:18;;;;;;;;;;;;;;;-142.75;87.61;75782.97;5057443;28;19940;-66
2022/08/05 08:26:43;;;;;;;;;;;;;;;-142.75;87.69;75812.50;5056844;28;19912;-66
2022/08/05 08:29:09;;;;;;;;;;;;;;;-142.75;91.86;75869.56;5057032;28;19944;-66
2022/08/05 08:31:34;;;;;;;;;;;;;;;-142.75;87.22;75887.28;5057218;28;19912;-65
2022/08/05 08:33:59;;;;;;;;;;;;;;;-142.75;90.35;75942.41;5040155;28;19920;-64
2022/08/05 08:36:24;;;;;;;;;;;;;;;-142.75;90.01;75946.34;5057984;28;19920;-64
2022/08/05 08:38:53;;;;;;;;;;;;;;;-142.75;90.74;75905.00;5057940;28;19917;-66
2022/08/05 08:41:21;;;;;;;;;;;;;;;-142.75;82.73;75802.66;5057882;28;19940;-66
2022/08/05 08:43:46;;;;;;;;;;;;;;;-142.75;71.17;75759.38;5040432;28;20294;-66
2022/08/05 08:46:11;;;;;;;;;;;;;;;-142.75;69.08;75788.88;5058100;28;19919;-67
2022/08/05 08:48:40;;;;;;;;;;;;;;;-142.75;65.09;75767.22;5053557;28;19917;-65
2022/08/05 08:51:06;;;;;;;;;;;;;;;-142.75;67.07;75806.59;5054887;28;19921;-65
2022/08/05 08:53:36;;;;;;;;;;;;;;;-142.75;78.56;75871.53;5054739;28;19966;-65
2022/08/05 08:56:03;;;;;;;;;;;;;;;-142.75;82.80;75905.00;5054632;28;20255;-64
2022/08/05 08:58:28;;;;;;;;;;;;;;;-142.75;85.72;75942.41;5054311;28;19939;-63
2022/08/05 09:00:54;;;;;;;;;;;;;;;-142.75;88.03;75993.56;5054865;28;20437;-65
2022/08/05 09:03:19;;;;;;;;;;;;;;;-142.75;87.63;76019.16;5054676;28;19920;-65
2022/08/05 09:05:45;;;;;;;;;;;;;;;-142.75;88.62;76070.34;5036831;28;19972;-65
2022/08/05 09:08:11;;;;;;;;;;;;;;;-142.75;91.91;76074.25;5054214;28;19917;-65
2022/08/05 09:10:39;;;;;;;;;;;;;;;-142.75;87.25;76107.72;5036624;28;20504;-65
2022/08/05 09:13:04;;;;;;;;;;;;;;;-142.75;84.08;76145.13;5054511;28;20054;-64
2022/08/05 09:15:29;;;;;;;;;;;;;;;-142.75;85.08;76188.44;5036545;28;20003;-64
2022/08/05 09:17:54;;;;;;;;;;;;;;;-142.75;83.51;76212.03;5054080;28;19920;-65
2022/08/05 09:20:19;;;;;;;;;;;;;;;-142.75;86.81;76255.34;5036513;28;19921;-65
2022/08/05 09:23:04;;;;;;;;;;;;;;;-142.75;90.85;76300.63;5036372;28;19912;-67
2022/08/05 09:25:30;;;;;;;;;;;;;;;-142.75;92.57;76304.56;5054291;28;19919;-66
2022/08/05 09:27:55;;;;;;;;;;;;;;;-142.75;98.44;76318.34;5053901;28;20377;-66
2022/08/05 09:30:21;;;;;;;;;;;;;;;-142.75;98.94;76320.31;5054184;28;20391;-67
2022/08/05 09:32:46;;;;;;;;;;;;;;;-142.75;100.00;76314.41;5054183;28;19913;-66
2022/08/05 09:35:15;;;;;;;;;;;;;;;-142.75;99.00;76328.19;5054085;28;19920;-66
2022/08/05 09:37:50;;;;;;;;;;;;;;;-142.75;99.14;76349.81;5053732;28;19955;-66
2022/08/05 09:40:33;;;;;;;;;;;;;;;-142.75;100.00;76349.81;5054031;28;19913;-66
2022/08/05 09:42:59;;;;;;;;;;;;;;;-142.75;100.00;76355.72;5054132;28;19913;-66
2022/08/05 09:45:40;;;;;;;;;;;;;;;-142.75;99.26;76349.81;5036075;28;19912;-65
2022/08/05 09:48:19;;;;;;;;;;;;;;;-142.75;100.00;76347.84;5053557;28;19917;-65
2022/08/05 09:50:47;;;;;;;;;;;;;;;-142.75;100.00;76322.28;5053754;28;19920;-66
2022/08/05 09:53:13;;;;;;;;;;;;;;;-142.75;100.00;76320.31;5053756;28;19913;-66
2022/08/05 09:55:38;;;;;;;;;;;;;;;-142.75;100.00;76338.03;5053673;28;20386;-66
2022/08/05 09:58:10;;;;;;;;;;;;;;;-142.75;100.00;76369.50;5052439;28;19917;-65
2022/08/05 10:00:35;;;;;;;;;;;;;;;-142.75;100.00;76357.69;5052580;28;19999;-65
2022/08/05 10:03:07;;;;;;;;;;;;;;;-142.75;100.00;76355.72;5052665;28;20012;-65
2022/08/05 10:05:32;;;;;;;;;;;;;;;-142.75;100.00;76377.38;5052581;28;19944;-65
2022/08/05 10:07:59;;;;;;;;;;;;;;;-142.75;98.32;76385.25;5052140;28;19954;-64
2022/08/05 10:10:26;;;;;;;;;;;;;;;-142.75;100.00;76347.84;5052457;28;20309;-65
2022/08/05 10:12:53;;;;;;;;;;;;;;;-142.75;100.00;76341.97;5052432;28;20390;-66
2022/08/05 10:15:24;;;;;;;;;;;;;;;-142.75;100.00;76361.63;5052505;28;20363;-66
2022/08/05 10:18:07;;;;;;;;;;;;;;;-142.75;98.32;76341.97;5052084;28;19958;-66
2022/08/05 10:20:34;;;;;;;;;;;;;;;-142.75;98.40;76326.22;5052430;28;19913;-66
2022/08/05 10:23:00;;;;;;;;;;;;;;;-142.75;95.68;76320.31;5052266;28;19912;-65
2022/08/05 10:25:25;;;;;;;;;;;;;;;-142.75;89.33;76312.44;5052168;28;20405;-66
2022/08/05 10:27:52;;;;;;;;;;;;;;;-142.75;91.74;76298.66;5051896;28;19917;-65
2022/08/05 10:30:17;;;;;;;;;;;;;;;-142.75;89.42;76304.56;5052181;28;19963;-66
2022/08/05 10:32:43;;;;;;;;;;;;;;;-142.75;93.91;76288.81;5052540;28;20331;-66
2022/08/05 10:35:08;;;;;;;;;;;;;;;-142.75;94.80;76312.44;5052150;28;19999;-66
2022/08/05 10:37:33;;;;;;;;;;;;;;;-142.75;97.63;76310.47;5049040;28;19942;-66
2022/08/05 10:40:03;;;;;;;;;;;;;;;-142.75;94.85;76318.34;5051678;28;19999;-65
2022/08/05 10:42:33;;;;;;;;;;;;;;;-142.75;96.69;76320.31;5050426;28;19917;-66
2022/08/05 10:44:58;;;;;;;;;;;;;;;-142.75;96.26;76302.59;5051815;28;20382;-65
2022/08/05 10:47:30;;;;;;;;;;;;;;;-142.75;93.37;76302.59;5051499;28;19913;-66
2022/08/05 10:50:05;;;;;;;;;;;;;;;-142.75;85.78;76273.06;5051817;28;20405;-65
2022/08/05 10:52:37;;;;;;;;;;;;;;;-142.75;80.34;76282.91;5051824;28;20340;-64
2022/08/05 10:55:06;;;;;;;;;;;;;;;-142.75;69.70;76273.06;5051839;28;20476;-64
2022/08/05 10:57:31;;;;;;;;;;;;;;;-142.75;66.53;76282.91;4990059;28;1744235;-64
2022/08/05 11:00:22;;;;;;;;;;;;;;;-142.75;67.35;76288.81;5052510;28;20004;-65
2022/08/05 11:03:03;;;;;;;;;;;;;;;-142.75;68.47;76290.78;5049260;28;19919;-65
2022/08/05 11:05:28;;;;;;;;;;;;;;;-142.75;69.63;76275.03;5034591;28;19920;-65
2022/08/05 11:07:58;;;;;;;;;;;;;;;-142.75;71.31;76247.47;5051952;28;19989;-65
2022/08/05 11:10:24;;;;;;;;;;;;;;;-142.75;67.53;76233.69;5047321;28;20343;-66
2022/08/05 11:12:49;;;;;;;;;;;;;;;-142.75;67.47;76172.69;5052115;28;20305;-65
2022/08/05 11:15:14;;;;;;;;;;;;;;;-142.75;64.78;76101.81;5051798;28;19919;-66
2022/08/05 11:17:39;;;;;;;;;;;;;;;-142.75;64.25;76068.38;5051851;28;19941;-63
2022/08/05 11:20:05;;;;;;;;;;;;;;;-142.75;64.83;76074.25;5052159;28;19959;-65
2022/08/05 11:22:36;;;;;;;;;;;;;;;-142.75;63.87;76076.22;5052054;28;19917;-65
2022/08/05 11:25:20;;;;;;;;;;;;;;;-142.75;65.25;76086.06;5052163;28;19913;-65
2022/08/05 11:27:45;;;;;;;;;;;;;;;-142.75;64.96;76127.41;5051638;28;20358;-66
2022/08/05 11:30:11;;;;;;;;;;;;;;;-142.75;64.80;76101.81;5033598;28;19917;-65
2022/08/05 11:32:36;;;;;;;;;;;;;;;-142.75;65.35;76091.97;5052186;28;20272;-65
2022/08/05 11:35:01;;;;;;;;;;;;;;;-142.75;67.36;76105.75;5052045;28;19913;-65
2022/08/05 11:37:38;;;;;;;;;;;;;;;-142.75;70.88;76117.56;5051638;28;19913;-65
2022/08/05 11:40:06;;;;;;;;;;;;;;;-142.75;71.58;76149.06;5051976;28;19913;-66
2022/08/05 11:42:34;;;;;;;;;;;;;;;-142.75;70.38;76109.69;5052065;28;20010;-64
2022/08/05 11:45:03;;;;;;;;;;;;;;;-142.75;70.63;76062.47;5051968;28;19912;-65
2022/08/05 11:47:29;;;;;;;;;;;;;;;-142.75;71.37;76060.50;5051598;28;20382;-65
2022/08/05 11:49:56;;;;;;;;;;;;;;;-142.75;69.61;76040.81;5051886;28;19971;-66
2022/08/05 11:52:24;;;;;;;;;;;;;;;-142.75;72.75;76021.13;5051838;28;20279;-66
2022/08/05 11:54:49;;;;;;;;;;;;;;;-142.75;72.88;76027.03;5051895;28;19916;-65
2022/08/05 11:57:15;;;;;;;;;;;;;;;-142.75;69.20;75995.53;5051262;28;19917;-66
2022/08/05 11:59:41;;;;;;;;;;;;;;;-142.75;65.28;75987.66;5033931;28;19916;-66
2022/08/05 12:02:06;;;;;;;;;;;;;;;-142.75;67.85;76040.81;5051734;28;19928;-65
2022/08/05 12:04:42;;;;;;;;;;;;;;;-142.75;69.54;76023.09;5084838;22;19929;-63
2022/08/05 12:07:08;;;;;;;;;;;;;;;-142.75;70.59;75983.72;5069453;28;19916;-63
2022/08/05 12:09:37;;;;;;;;;;;;;;;-142.75;69.87;75924.69;5053730;28;19920;-62
2022/08/05 12:12:04;;;;;;;;;;;;;;;-142.75;67.44;75877.44;5053855;28;19916;-63
2022/08/05 12:14:39;;;;;;;;;;;;;;;-142.75;65.77;75844.00;5055841;28;19924;-62
2022/08/05 12:17:11;;;;;;;;;;;;;;;-142.75;65.60;75908.94;5049028;28;19996;-63
2022/08/05 12:19:56;;;;;;;;;;;;;;;-142.75;67.72;75956.19;5048196;28;19913;-63
2022/08/05 12:22:25;;;;;;;;;;;;;;;-142.75;67.27;75983.72;5050424;28;19919;-62
2022/08/05 12:24:50;;;;;;;;;;;;;;;-142.75;68.31;76029.00;5054174;28;19970;-58